createdAt,value
2018-05-21T00:01:45.234Z,47.10
2018-05-21T00:04:12.820Z,47.10
2018-05-21T00:06:40.358Z,47.50
2018-05-21T00:09:07.950Z,47.60
2018-05-21T00:11:35.595Z,48.00
2018-05-21T00:14:03.357Z,47.70
2018-05-21T00:16:31.007Z,48.10
2018-05-21T00:18:58.566Z,47.70
2018-05-21T00:21:26.042Z,47.90
2018-05-21T00:23:53.762Z,48.20
2018-05-21T00:26:21.229Z,48.00
2018-05-21T00:28:48.912Z,48.20
2018-05-21T00:31:16.362Z,48.40
2018-05-21T00:33:43.811Z,48.60
2018-05-21T00:36:11.251Z,48.50
2018-05-21T00:38:38.784Z,48.30
2018-05-21T00:41:07.929Z,48.60
2018-05-21T00:43:35.426Z,48.60
2018-05-21T00:46:03.056Z,48.70
2018-05-21T00:48:30.711Z,48.60
2018-05-21T00:50:58.368Z,48.70
2018-05-21T00:53:25.918Z,48.80
2018-05-21T00:55:53.365Z,49.00
2018-05-21T00:58:20.953Z,49.30
2018-05-21T01:00:48.610Z,49.30
2018-05-21T01:03:16.073Z,49.40
2018-05-21T01:05:44.354Z,49.40
2018-05-21T01:08:11.849Z,49.50
2018-05-21T01:10:39.369Z,49.60
2018-05-21T01:13:06.797Z,50.00
2018-05-21T01:15:34.266Z,50.00
2018-05-21T01:18:01.717Z,50.10
2018-05-21T01:20:29.161Z,50.20
2018-05-21T01:22:56.751Z,50.20
2018-05-21T01:25:24.414Z,50.30
2018-05-21T01:27:52.054Z,50.50
2018-05-21T01:30:19.545Z,50.80
2018-05-21T01:32:47.000Z,50.80
2018-05-21T01:35:14.632Z,50.80
2018-05-21T01:37:42.299Z,50.80
2018-05-21T01:40:09.847Z,51.40
2018-05-21T01:42:37.280Z,51.50
2018-05-21T01:45:04.741Z,50.90
2018-05-21T01:47:32.321Z,50.90
2018-05-21T01:49:59.772Z,51.20
2018-05-21T01:52:27.451Z,51.10
2018-05-21T01:54:55.097Z,51.10
2018-05-21T01:57:22.537Z,52.00
2018-05-21T01:59:50.000Z,51.70
2018-05-21T02:02:17.461Z,51.40
2018-05-21T02:04:44.912Z,51.60
2018-05-21T02:07:12.461Z,51.80
2018-05-21T02:09:40.066Z,52.60
2018-05-21T02:12:09.012Z,51.90
2018-05-21T02:14:36.596Z,51.90
2018-05-21T02:17:04.132Z,52.10
2018-05-21T02:19:31.718Z,52.20
2018-05-21T02:21:59.182Z,52.60
2018-05-21T02:24:26.692Z,53.40
2018-05-21T02:26:54.227Z,52.80
2018-05-21T02:29:21.937Z,52.80
2018-05-21T02:31:49.487Z,53.10
2018-05-21T02:34:16.955Z,53.10
2018-05-21T02:36:44.512Z,53.20
2018-05-21T02:39:12.191Z,53.60
2018-05-21T02:41:39.658Z,53.30
2018-05-21T02:44:07.104Z,53.50
2018-05-21T02:46:34.536Z,53.40
2018-05-21T02:49:02.220Z,53.60
2018-05-21T02:51:29.857Z,53.50
2018-05-21T02:53:58.363Z,53.70
2018-05-21T02:56:27.343Z,54.30
2018-05-21T02:58:54.918Z,54.20
2018-05-21T03:01:22.556Z,54.10
2018-05-21T03:03:50.234Z,53.90
2018-05-21T03:06:17.880Z,54.10
2018-05-21T03:08:45.576Z,53.80
2018-05-21T03:11:13.069Z,54.10
2018-05-21T03:13:40.651Z,53.80
2018-05-21T03:16:08.123Z,54.00
2018-05-21T03:18:35.559Z,53.90
2018-05-21T03:21:03.008Z,53.90
2018-05-21T03:23:30.473Z,54.00
2018-05-21T03:25:57.933Z,54.10
2018-05-21T03:28:25.604Z,54.00
2018-05-21T03:30:53.129Z,54.10
2018-05-21T03:33:20.703Z,54.50
2018-05-21T03:35:48.209Z,54.60
2018-05-21T03:38:15.844Z,54.30
2018-05-21T03:40:43.509Z,54.50
2018-05-21T03:43:12.607Z,54.80
2018-05-21T03:45:40.071Z,54.70
2018-05-21T03:48:07.509Z,54.60
2018-05-21T03:50:36.487Z,54.60
2018-05-21T03:53:04.050Z,54.60
2018-05-21T03:55:31.724Z,54.60
2018-05-21T03:58:00.825Z,54.80
2018-05-21T04:00:40.145Z,54.70
2018-05-21T04:03:19.381Z,54.50
2018-05-21T04:05:46.818Z,54.60
2018-05-21T04:08:14.584Z,54.60
2018-05-21T04:10:43.068Z,54.70
2018-05-21T04:13:10.736Z,54.90
2018-05-21T04:15:38.277Z,54.40
2018-05-21T04:18:06.072Z,54.60
2018-05-21T04:20:33.723Z,54.70
2018-05-21T04:23:01.385Z,54.70
2018-05-21T04:25:28.930Z,54.50
2018-05-21T04:27:56.382Z,54.90
2018-05-21T04:30:23.903Z,55.00
2018-05-21T04:32:51.341Z,55.30
2018-05-21T04:35:19.572Z,55.40
2018-05-21T04:37:47.013Z,55.30
2018-05-21T04:40:14.546Z,55.50
2018-05-21T04:42:42.063Z,55.50
2018-05-21T04:45:09.709Z,55.30
2018-05-21T04:47:37.387Z,55.30
2018-05-21T04:50:04.839Z,55.50
2018-05-21T04:52:32.278Z,55.50
2018-05-21T04:54:59.955Z,55.80
2018-05-21T04:57:27.406Z,55.10
2018-05-21T04:59:55.053Z,55.20
2018-05-21T05:02:22.502Z,54.90
2018-05-21T05:04:49.968Z,54.60
2018-05-21T05:07:17.451Z,54.50
2018-05-21T05:09:45.915Z,54.10
2018-05-21T05:12:13.352Z,54.10
2018-05-21T05:14:41.036Z,54.10
2018-05-21T05:17:08.683Z,54.40
2018-05-21T05:19:36.373Z,54.10
2018-05-21T05:22:03.936Z,54.40
2018-05-21T05:24:31.545Z,54.30
2018-05-21T05:26:59.010Z,54.80
2018-05-21T05:29:26.574Z,54.50
2018-05-21T05:31:54.241Z,53.90
2018-05-21T05:34:21.776Z,54.00
2018-05-21T05:36:49.230Z,54.40
2018-05-21T05:39:16.809Z,54.40
2018-05-21T05:41:44.271Z,54.40
2018-05-21T05:44:11.733Z,54.20
2018-05-21T05:46:39.211Z,54.40
2018-05-21T05:49:06.667Z,54.00
2018-05-21T05:51:34.913Z,53.70
2018-05-21T05:54:02.571Z,53.70
2018-05-21T05:56:30.139Z,54.30
2018-05-21T05:58:57.700Z,53.30
2018-05-21T06:01:25.348Z,53.80
2018-05-21T06:03:52.805Z,53.30
2018-05-21T06:06:20.266Z,53.50
2018-05-21T06:08:47.932Z,53.80
2018-05-21T06:11:15.471Z,52.50
2018-05-21T06:13:42.925Z,52.50
2018-05-21T06:16:10.394Z,52.70
2018-05-21T06:18:37.967Z,53.40
2018-05-21T06:21:05.622Z,52.70
2018-05-21T06:23:33.291Z,52.30
2018-05-21T06:26:00.842Z,51.70
2018-05-21T06:28:28.591Z,52.00
2018-05-21T06:30:56.087Z,53.10
2018-05-21T06:33:23.523Z,52.40
2018-05-21T06:35:51.023Z,52.70
2018-05-21T06:38:18.502Z,53.20
2018-05-21T06:40:46.096Z,52.20
2018-05-21T06:43:13.748Z,51.80
2018-05-21T06:45:41.278Z,51.90
2018-05-21T06:48:08.950Z,51.30
2018-05-21T06:50:36.456Z,51.70
2018-05-21T06:53:04.177Z,52.30
2018-05-21T06:55:31.845Z,50.50
2018-05-21T06:57:59.321Z,51.20
2018-05-21T07:00:26.871Z,50.60
2018-05-21T07:02:54.416Z,50.10
2018-05-21T07:05:21.942Z,50.00
2018-05-21T07:07:51.089Z,50.20
2018-05-21T07:10:18.760Z,50.50
2018-05-21T07:12:46.977Z,50.70
2018-05-21T07:15:14.461Z,51.10
2018-05-21T07:17:41.922Z,51.10
2018-05-21T07:20:10.792Z,49.90
2018-05-21T07:22:38.243Z,50.30
2018-05-21T07:25:05.813Z,48.60
2018-05-21T07:27:33.280Z,49.30
2018-05-21T07:30:00.808Z,48.90
2018-05-21T07:32:28.291Z,49.30
2018-05-21T07:34:55.844Z,51.20
2018-05-21T07:37:23.331Z,50.20
2018-05-21T07:39:51.128Z,49.10
2018-05-21T07:42:18.827Z,49.30
2018-05-21T07:44:46.451Z,49.80
2018-05-21T07:47:14.073Z,48.90
2018-05-21T07:49:42.515Z,49.60
2018-05-21T07:52:09.974Z,49.00
2018-05-21T07:54:37.475Z,49.70
2018-05-21T07:57:04.923Z,49.10
2018-05-21T07:59:33.582Z,48.00
2018-05-21T08:02:01.105Z,48.50
2018-05-21T08:04:28.549Z,48.90
2018-05-21T08:06:56.144Z,47.60
2018-05-21T08:09:24.001Z,49.30
2018-05-21T08:11:51.494Z,48.60
2018-05-21T08:14:19.041Z,47.90
2018-05-21T08:16:46.737Z,48.20
2018-05-21T08:19:15.697Z,48.80
2018-05-21T08:21:43.259Z,48.00
2018-05-21T08:24:11.045Z,47.20
2018-05-21T08:26:39.056Z,48.60
2018-05-21T08:29:06.949Z,47.70
2018-05-21T08:31:34.409Z,47.00
2018-05-21T08:34:02.039Z,47.30
2018-05-21T08:36:29.626Z,46.70
2018-05-21T08:38:57.097Z,47.20
2018-05-21T08:41:24.544Z,47.60
2018-05-21T08:43:51.997Z,47.20
2018-05-21T08:46:19.578Z,46.60
2018-05-21T08:48:49.309Z,47.00
2018-05-21T08:51:17.156Z,46.90
2018-05-21T08:53:45.610Z,47.20
2018-05-21T08:56:13.986Z,46.10
2018-05-21T08:58:42.676Z,46.20
2018-05-21T09:01:10.178Z,47.00
2018-05-21T09:03:38.810Z,47.00
2018-05-21T09:06:06.294Z,45.30
2018-05-21T09:08:33.916Z,45.40
2018-05-21T09:11:01.910Z,46.20
2018-05-21T09:13:29.361Z,45.60
2018-05-21T09:15:56.829Z,46.50
2018-05-21T09:18:24.384Z,45.40
2018-05-21T09:20:51.840Z,43.50
2018-05-21T09:23:19.368Z,43.90
2018-05-21T09:25:46.806Z,45.30
2018-05-21T09:28:14.336Z,44.10
2018-05-21T09:30:42.545Z,44.90
2018-05-21T09:33:10.137Z,44.90
2018-05-21T09:35:37.580Z,43.00
2018-05-21T09:38:05.116Z,42.90
2018-05-21T09:40:32.704Z,42.60
2018-05-21T09:43:00.220Z,43.50
2018-05-21T09:45:27.826Z,43.10
2018-05-21T09:47:55.969Z,42.50
2018-05-21T09:50:23.620Z,41.90
2018-05-21T09:52:51.077Z,42.50
2018-05-21T09:55:18.674Z,42.20
2018-05-21T09:57:46.306Z,41.40
2018-05-21T10:00:16.545Z,40.70
2018-05-21T10:02:44.095Z,40.40
2018-05-21T10:05:11.541Z,40.90
2018-05-21T10:07:39.096Z,40.90
2018-05-21T10:10:06.635Z,41.90
2018-05-21T10:12:34.345Z,41.40
2018-05-21T10:15:01.866Z,41.20
2018-05-21T10:17:29.341Z,42.40
2018-05-21T10:19:56.910Z,40.20
2018-05-21T10:22:25.864Z,40.70
2018-05-21T10:24:53.342Z,40.70
2018-05-21T10:27:20.904Z,41.00
2018-05-21T10:29:48.383Z,38.90
2018-05-21T10:32:16.660Z,37.50
2018-05-21T10:34:44.126Z,37.40
2018-05-21T10:37:11.672Z,35.80
2018-05-21T10:39:39.226Z,37.40
2018-05-21T10:42:06.754Z,36.80
2018-05-21T10:44:34.210Z,37.40
2018-05-21T10:47:01.677Z,37.00
2018-05-21T10:49:29.108Z,36.70
2018-05-21T10:51:56.717Z,37.60
2018-05-21T10:54:24.240Z,37.10
2018-05-21T10:56:51.804Z,36.80
2018-05-21T10:59:19.293Z,36.10
2018-05-21T11:01:46.848Z,36.50
2018-05-21T11:04:14.244Z,36.40
2018-05-21T11:06:41.717Z,35.30
2018-05-21T11:09:09.190Z,34.80
2018-05-21T11:11:36.749Z,35.10
2018-05-21T11:14:04.185Z,36.00
2018-05-21T11:16:31.860Z,35.40
2018-05-21T11:18:59.545Z,35.30
2018-05-21T11:21:26.999Z,34.60
2018-05-21T11:23:54.456Z,36.30
2018-05-21T11:26:23.410Z,35.40
2018-05-21T11:28:51.024Z,35.30
2018-05-21T11:31:18.529Z,35.30
2018-05-21T11:33:46.106Z,34.10
2018-05-21T11:36:13.790Z,34.90
2018-05-21T11:38:41.228Z,35.70
2018-05-21T11:41:08.714Z,35.20
2018-05-21T11:43:36.336Z,35.50
2018-05-21T11:46:03.888Z,34.80
2018-05-21T11:48:31.418Z,35.00
2018-05-21T11:50:58.882Z,35.10
2018-05-21T11:53:26.325Z,36.00
2018-05-21T11:55:53.768Z,36.80
2018-05-21T11:58:22.460Z,36.90
2018-05-21T12:00:50.682Z,35.60
2018-05-21T12:03:18.143Z,35.60
2018-05-21T12:05:45.602Z,35.20
2018-05-21T12:08:13.159Z,34.20
2018-05-21T12:10:40.629Z,35.30
2018-05-21T12:13:08.163Z,36.30
2018-05-21T12:15:35.717Z,36.20
2018-05-21T12:18:03.180Z,35.80
2018-05-21T12:20:30.845Z,36.60
2018-05-21T12:22:58.318Z,36.50
2018-05-21T12:25:25.760Z,37.50
2018-05-21T12:27:53.197Z,36.80
2018-05-21T12:30:20.886Z,35.10
2018-05-21T12:32:48.526Z,34.40
2018-05-21T12:35:15.976Z,37.20
2018-05-21T12:37:43.447Z,36.40
2018-05-21T12:40:10.973Z,34.80
2018-05-21T12:42:38.553Z,36.00
2018-05-21T12:45:06.012Z,36.20
2018-05-21T12:47:33.553Z,37.20
2018-05-21T12:50:01.058Z,36.70
2018-05-21T12:52:28.791Z,35.60
2018-05-21T12:54:56.448Z,37.10
2018-05-21T12:57:24.147Z,36.10
2018-05-21T12:59:51.771Z,36.10
2018-05-21T13:02:19.316Z,35.20
2018-05-21T13:04:46.892Z,36.50
2018-05-21T13:07:14.563Z,36.40
2018-05-21T13:09:43.576Z,36.00
2018-05-21T13:12:11.913Z,38.40
2018-05-21T13:14:39.459Z,38.30
2018-05-21T13:17:06.912Z,37.50
2018-05-21T13:19:34.436Z,37.70
2018-05-21T13:22:02.774Z,35.90
2018-05-21T13:24:30.302Z,35.80
2018-05-21T13:26:57.827Z,37.00
2018-05-21T13:29:26.263Z,38.20
2018-05-21T13:31:53.838Z,37.50
2018-05-21T13:34:22.803Z,37.80
2018-05-21T13:36:50.369Z,37.80
2018-05-21T13:39:17.800Z,36.40
2018-05-21T13:41:45.484Z,36.50
2018-05-21T13:44:13.037Z,37.70
2018-05-21T13:46:40.481Z,38.10
2018-05-21T13:49:08.065Z,38.10
2018-05-21T13:51:35.722Z,37.10
2018-05-21T13:54:03.367Z,37.90
2018-05-21T13:56:30.835Z,37.00
2018-05-21T13:58:58.497Z,38.30
2018-05-21T14:01:25.923Z,37.10
2018-05-21T14:03:53.614Z,36.20
2018-05-21T14:06:21.159Z,35.80
2018-05-21T14:08:48.927Z,35.60
2018-05-21T14:11:16.462Z,35.70
2018-05-21T14:13:44.084Z,34.80
2018-05-21T14:16:11.796Z,34.20
2018-05-21T14:18:39.381Z,35.10
2018-05-21T14:21:07.038Z,32.90
2018-05-21T14:23:34.491Z,32.80
2018-05-21T14:26:01.980Z,33.40
2018-05-21T14:28:29.469Z,32.50
2018-05-21T14:30:56.932Z,32.30
2018-05-21T14:33:24.375Z,32.60
2018-05-21T14:35:51.988Z,33.40
2018-05-21T14:38:21.085Z,33.70
2018-05-21T14:40:48.802Z,33.70
2018-05-21T14:43:16.381Z,34.10
2018-05-21T14:45:44.041Z,34.30
2018-05-21T14:48:11.568Z,35.00
2018-05-21T14:50:39.906Z,35.20
2018-05-21T14:53:07.716Z,35.20
2018-05-21T14:55:35.178Z,35.20
2018-05-21T14:58:02.701Z,35.10
2018-05-21T15:00:31.060Z,33.70
2018-05-21T15:02:58.517Z,33.70
2018-05-21T15:05:26.028Z,34.50
2018-05-21T15:07:53.596Z,35.20
2018-05-21T15:10:21.082Z,35.00
2018-05-21T15:12:48.524Z,35.60
2018-05-21T15:15:16.387Z,35.30
2018-05-21T15:17:44.054Z,33.90
2018-05-21T15:20:11.746Z,34.60
2018-05-21T15:22:39.272Z,33.50
2018-05-21T15:25:07.529Z,32.70
2018-05-21T15:27:35.021Z,32.30
2018-05-21T15:30:03.297Z,34.00
2018-05-21T15:32:30.854Z,33.40
2018-05-21T15:34:58.302Z,34.50
2018-05-21T15:37:25.792Z,33.40
2018-05-21T15:39:54.671Z,34.70
2018-05-21T15:42:22.175Z,35.30
2018-05-21T15:44:49.861Z,36.00
2018-05-21T15:47:17.683Z,36.00
2018-05-21T15:49:45.277Z,36.30
2018-05-21T15:52:12.856Z,36.60
2018-05-21T15:54:40.398Z,36.10
2018-05-21T15:57:07.854Z,36.40
2018-05-21T15:59:35.493Z,36.40
2018-05-21T16:02:02.949Z,36.60
2018-05-21T16:04:30.421Z,36.80
2018-05-21T16:06:57.872Z,34.60
2018-05-21T16:09:25.425Z,35.90
2018-05-21T16:11:52.865Z,35.40
2018-05-21T16:14:20.335Z,35.10
2018-05-21T16:16:47.817Z,35.50
2018-05-21T16:19:15.353Z,35.90
2018-05-21T16:21:43.033Z,35.40
2018-05-21T16:24:10.484Z,35.40
2018-05-21T16:26:37.939Z,35.70
2018-05-21T16:29:05.656Z,36.00
2018-05-21T16:31:33.337Z,35.80
2018-05-21T16:34:00.804Z,35.50
2018-05-21T16:36:28.308Z,36.00
2018-05-21T16:38:55.823Z,35.60
2018-05-21T16:41:23.419Z,36.00
2018-05-21T16:43:50.939Z,35.10
2018-05-21T16:46:18.615Z,34.70
2018-05-21T16:48:46.120Z,34.50
2018-05-21T16:51:13.579Z,34.90
2018-05-21T16:53:41.197Z,34.70
2018-05-21T16:56:08.892Z,35.20
2018-05-21T16:58:36.613Z,35.70
2018-05-21T17:01:04.080Z,36.10
2018-05-21T17:03:32.363Z,35.40
2018-05-21T17:05:59.972Z,35.30
2018-05-21T17:08:27.885Z,35.10
2018-05-21T17:10:56.220Z,35.50
2018-05-21T17:13:24.364Z,35.40
2018-05-21T17:15:51.844Z,35.90
2018-05-21T17:18:19.425Z,35.90
2018-05-21T17:20:47.777Z,35.30
2018-05-21T17:23:15.799Z,35.30
2018-05-21T17:25:43.301Z,35.80
2018-05-21T17:28:10.885Z,35.90
2018-05-21T17:30:38.446Z,36.60
2018-05-21T17:33:05.884Z,36.40
2018-05-21T17:35:33.511Z,37.00
2018-05-21T17:38:01.180Z,37.50
2018-05-21T17:40:28.861Z,37.80
2018-05-21T17:42:56.367Z,37.60
2018-05-21T17:45:24.706Z,37.30
2018-05-21T17:47:52.188Z,37.20
2018-05-21T17:50:19.826Z,37.00
2018-05-21T17:52:47.468Z,37.50
2018-05-21T17:55:14.902Z,37.80
2018-05-21T17:57:42.761Z,38.50
2018-05-21T18:00:10.489Z,38.20
2018-05-21T18:02:37.942Z,38.40
2018-05-21T18:05:05.427Z,38.30
2018-05-21T18:07:33.081Z,38.90
2018-05-21T18:10:00.738Z,39.10
2018-05-21T18:12:28.232Z,39.60
2018-05-21T18:14:55.682Z,39.80
2018-05-21T18:17:23.207Z,40.10
2018-05-21T18:19:51.768Z,39.60
2018-05-21T18:22:19.473Z,39.60
2018-05-21T18:24:47.035Z,40.20
2018-05-21T18:27:14.553Z,40.10
2018-05-21T18:29:42.035Z,39.80
2018-05-21T18:32:09.631Z,40.00
2018-05-21T18:34:37.745Z,40.30
2018-05-21T18:37:05.382Z,40.50
2018-05-21T18:39:32.871Z,40.60
2018-05-21T18:42:00.693Z,40.80
2018-05-21T18:44:28.170Z,41.20
2018-05-21T18:46:55.886Z,40.80
2018-05-21T18:49:24.719Z,41.00
2018-05-21T18:51:52.340Z,41.30
2018-05-21T18:54:20.293Z,41.40
2018-05-21T18:56:48.509Z,41.80
2018-05-21T18:59:16.846Z,42.10
2018-05-21T19:01:45.292Z,42.20
2018-05-21T19:04:12.787Z,42.40
2018-05-21T19:06:40.565Z,42.70
2018-05-21T19:09:08.407Z,42.90
2018-05-21T19:11:36.106Z,42.90
2018-05-21T19:14:03.659Z,42.90
2018-05-21T19:16:31.171Z,43.40
2018-05-21T19:18:59.544Z,43.70
2018-05-21T19:21:26.993Z,43.60
2018-05-21T19:23:54.515Z,43.30
2018-05-21T19:26:22.070Z,43.70
2018-05-21T19:28:49.734Z,43.90
2018-05-21T19:31:17.388Z,43.70
2018-05-21T19:33:45.031Z,43.60
2018-05-21T19:36:12.499Z,43.80
2018-05-21T19:38:40.113Z,43.90
2018-05-21T19:41:08.430Z,43.90
2018-05-21T19:43:36.106Z,43.80
2018-05-21T19:46:03.566Z,44.20
2018-05-21T19:48:31.289Z,44.10
2018-05-21T19:50:58.996Z,44.20
2018-05-21T19:53:26.533Z,44.10
2018-05-21T19:55:54.206Z,44.30
2018-05-21T19:58:21.710Z,44.30
2018-05-21T20:00:49.208Z,44.50
2018-05-21T20:03:17.049Z,44.80
2018-05-21T20:05:44.625Z,45.10
2018-05-21T20:08:12.169Z,45.30
2018-05-21T20:10:39.687Z,45.60
2018-05-21T20:13:08.017Z,45.90
2018-05-21T20:15:35.460Z,45.90
2018-05-21T20:18:02.947Z,46.20
2018-05-21T20:20:41.242Z,46.40
2018-05-21T20:23:08.924Z,46.50
2018-05-21T20:25:36.497Z,46.70
2018-05-21T20:28:04.715Z,47.00
2018-05-21T20:30:32.190Z,47.60
2018-05-21T20:32:59.629Z,47.10
2018-05-21T20:35:27.128Z,47.20
2018-05-21T20:37:54.741Z,47.40
2018-05-21T20:40:22.267Z,47.40
2018-05-21T20:42:50.476Z,47.20
2018-05-21T20:45:18.053Z,47.10
2018-05-21T20:47:45.511Z,47.40
2018-05-21T20:50:13.198Z,47.50
2018-05-21T20:52:40.826Z,47.50
2018-05-21T20:55:08.292Z,47.60
2018-05-21T20:57:35.835Z,47.80
2018-05-21T21:00:03.357Z,47.60
2018-05-21T21:02:31.604Z,47.60
2018-05-21T21:04:59.058Z,47.60
2018-05-21T21:07:26.584Z,47.40
2018-05-21T21:09:54.055Z,47.60
2018-05-21T21:12:21.586Z,47.40
2018-05-21T21:14:49.164Z,47.00
2018-05-21T21:17:16.834Z,47.20
2018-05-21T21:19:45.390Z,47.00
2018-05-21T21:22:12.837Z,47.30
2018-05-21T21:24:40.300Z,47.20
2018-05-21T21:27:07.747Z,47.10
2018-05-21T21:29:35.269Z,46.60
2018-05-21T21:32:03.623Z,46.40
2018-05-21T21:34:31.146Z,46.40
2018-05-21T21:36:58.734Z,46.40
2018-05-21T21:39:26.386Z,46.50
2018-05-21T21:41:53.837Z,46.10
2018-05-21T21:44:21.304Z,46.40
2018-05-21T21:46:48.971Z,46.50
2018-05-21T21:49:16.493Z,46.50
2018-05-21T21:51:44.068Z,46.30
2018-05-21T21:54:11.517Z,46.30
2018-05-21T21:56:39.269Z,46.00
2018-05-21T21:59:06.805Z,45.80
2018-05-21T22:01:34.316Z,45.90
2018-05-21T22:04:01.848Z,45.90
2018-05-21T22:06:29.300Z,46.00
2018-05-21T22:08:56.889Z,46.00
2018-05-21T22:11:24.427Z,45.90
2018-05-21T22:13:51.867Z,46.10
2018-05-21T22:16:19.315Z,46.20
2018-05-21T22:18:46.909Z,46.00
2018-05-21T22:21:14.442Z,45.90
2018-05-21T22:23:42.043Z,46.00
2018-05-21T22:26:09.718Z,45.90
2018-05-21T22:28:37.156Z,45.80
2018-05-21T22:31:04.608Z,45.80
2018-05-21T22:33:32.144Z,45.70
2018-05-21T22:35:59.592Z,45.90
2018-05-21T22:38:27.176Z,45.50
2018-05-21T22:40:54.640Z,45.40
2018-05-21T22:43:22.174Z,45.70
2018-05-21T22:45:49.746Z,45.60
2018-05-21T22:48:17.284Z,45.90
2018-05-21T22:50:44.855Z,45.60
2018-05-21T22:53:12.293Z,45.60
2018-05-21T22:55:39.743Z,45.60
2018-05-21T22:58:07.247Z,45.90
2018-05-21T23:00:34.764Z,45.60
2018-05-21T23:03:02.227Z,45.70
2018-05-21T23:05:29.674Z,46.00
2018-05-21T23:07:57.267Z,45.70
2018-05-21T23:10:24.921Z,45.90
2018-05-21T23:12:52.496Z,46.00
2018-05-21T23:15:19.955Z,46.10
2018-05-21T23:17:47.493Z,46.20
2018-05-21T23:20:14.932Z,46.00
2018-05-21T23:22:44.200Z,46.30
2018-05-21T23:25:12.396Z,46.20
2018-05-21T23:27:39.858Z,46.20
2018-05-21T23:30:07.377Z,46.20
2018-05-21T23:32:35.724Z,46.40
2018-05-21T23:35:03.295Z,46.40
2018-05-21T23:37:30.785Z,46.70
2018-05-21T23:39:58.363Z,46.90
2018-05-21T23:42:25.827Z,46.60
2018-05-21T23:44:53.264Z,46.80
2018-05-21T23:47:20.734Z,47.10
2018-05-21T23:49:48.266Z,47.00
2018-05-21T23:52:15.711Z,47.10
2018-05-21T23:54:44.050Z,47.20
2018-05-21T23:57:11.715Z,47.20
2018-05-21T23:59:40.807Z,47.40
